LEBL/BCN METAR and TAF weather

Enter ICAO airport designator
Station Type Date Time Source
LEBL METAR 2022/05/23 14:00 UTC NOAA

LEBL 231400Z 14009KT 110V170 9999 FEW025 24/18 Q1007 NOSIG


Station Type Date Time Source
LEBL Decoded METAR 2022/05/23 14:00 UTC NOAA

Barcelona / Aeropuerto, Spain (LEBL) 41-17N 002-04E 6M
May 23, 2022 - 10:00 AM EDT / 2022.05.23 1400 UTC
Wind: from the SE (140 degrees) at 10 MPH (9 KT) (direction variable):0
Visibility: greater than 7 mile(s):0
Sky conditions: mostly clear
Temperature: 75 F (24 C)
Dew Point: 64 F (18 C)
Relative Humidity: 69%
Pressure (altimeter): 29.74 in. Hg (1007 hPa)
ob: LEBL 231400Z 14009KT 110V170 9999 FEW025 24/18 Q1007 NOSIG
cycle: 14

Station Type Date Time Source
LEBL TAF 2022/05/23 12:27 UTC NOAA

TAF LEBL 231100Z 2312/2412 14010KT CAVOK TX24/2312Z TN17/2405Z
BECMG 2318/2320 22007KT
BECMG 2406/2408 09010KT PROB30
TEMPO 2406/2412 3000 TSRA FEW040CB

Example: see airport list